Terminal Aerodrome Forecast
Issued by NWS Cleveland, OH

Home | Current Version | Previous Version | Graphics & Text | Print | Product List | Glossary On
Versions: 1 2 3 4 5 6 7 8 9 10 11 12 13 14 15 16 17 18 19
000
FTUS41 KCLE 181100
TAFCAK
TAF
KCAK 181120Z 1812/1912 06006KT P6SM OVC100
     FM182100 02007KT P6SM VCSH BKN100
     FM190000 02005KT P6SM BKN250
     FM190500 VRB03KT 4SM BR SCT250
     FM190800 00000KT 1 1/2SM BR SCT250=

USA.gov is the U.S. government's official web portal to all federal, state and local government web resources and services.